createdAt,value
2023-02-02T00:01:12.229Z,111.05
2023-02-02T00:03:42.774Z,115.40
2023-02-02T00:06:13.341Z,112.65
2023-02-02T00:08:43.506Z,119.05
2023-02-02T00:11:14.042Z,108.35
2023-02-02T00:13:44.144Z,107.82
2023-02-02T00:16:34.307Z,110.75
2023-02-02T00:19:09.525Z,116.78
2023-02-02T00:21:40.390Z,124.80
2023-02-02T00:24:11.696Z,126.25
2023-02-02T00:26:42.832Z,126.20
2023-02-02T00:29:21.061Z,120.60
2023-02-02T00:31:51.569Z,126.60
2023-02-02T00:34:23.134Z,131.63
2023-02-02T00:36:54.208Z,136.20
2023-02-02T00:39:29.391Z,137.02
2023-02-02T00:41:59.759Z,136.90
2023-02-02T00:44:49.906Z,131.88
2023-02-02T00:47:21.394Z,131.95
2023-02-02T00:49:52.666Z,131.63
2023-02-02T00:52:22.774Z,140.82
2023-02-02T00:54:52.746Z,146.68
2023-02-02T00:57:23.334Z,145.38
2023-02-02T00:59:53.431Z,150.85
2023-02-02T01:02:24.584Z,144.18
2023-02-02T01:04:55.051Z,159.15
2023-02-02T01:07:25.591Z,154.38
2023-02-02T01:09:55.840Z,174.45
2023-02-02T01:12:26.468Z,162.18
2023-02-02T01:14:56.860Z,156.52
2023-02-02T01:17:27.126Z,153.13
2023-02-02T01:19:58.198Z,149.40
2023-02-02T01:22:29.532Z,151.43
2023-02-02T01:25:00.534Z,153.52
2023-02-02T01:27:31.710Z,152.77
2023-02-02T01:30:02.234Z,155.50
2023-02-02T01:32:33.108Z,150.90
2023-02-02T01:35:04.029Z,146.48
2023-02-02T01:37:34.468Z,142.90
2023-02-02T01:40:04.795Z,155.75
2023-02-02T01:42:35.454Z,144.90
2023-02-02T01:45:10.416Z,146.35
2023-02-02T01:47:43.300Z,148.63
2023-02-02T01:50:15.046Z,141.93
2023-02-02T01:52:46.439Z,143.80
2023-02-02T01:55:18.912Z,141.43
2023-02-02T01:57:55.554Z,139.50
2023-02-02T02:00:29.207Z,138.90
2023-02-02T02:03:09.273Z,141.23
2023-02-02T02:05:46.038Z,141.98
2023-02-02T02:08:35.756Z,138.02
2023-02-02T02:11:06.572Z,139.50
2023-02-02T02:13:57.933Z,136.35
2023-02-02T02:16:50.566Z,131.73
2023-02-02T02:20:00.046Z,136.15
2023-02-02T02:23:09.667Z,135.10
2023-02-02T02:26:11.659Z,132.82
2023-02-02T02:29:01.579Z,132.90
2023-02-02T02:31:51.415Z,133.55
2023-02-02T02:34:27.146Z,132.32
2023-02-02T02:37:16.905Z,127.38
2023-02-02T02:40:07.632Z,127.10
2023-02-02T02:42:41.006Z,124.18
2023-02-02T02:45:14.599Z,124.38
2023-02-02T02:47:45.108Z,129.05
2023-02-02T02:50:15.578Z,125.05
2023-02-02T02:52:45.841Z,115.25
2023-02-02T02:55:17.131Z,117.60
2023-02-02T02:57:53.380Z,112.70
2023-02-02T03:00:32.752Z,119.95
2023-02-02T03:03:09.153Z,114.43
2023-02-02T03:05:52.869Z,115.03
2023-02-02T03:08:35.160Z,115.55
2023-02-02T03:11:07.129Z,104.65
2023-02-02T03:13:37.502Z,104.22
2023-02-02T03:16:08.479Z,101.15
2023-02-02T03:18:40.053Z,85.13
2023-02-02T03:21:14.311Z,94.10
2023-02-02T03:23:44.358Z,91.63
2023-02-02T03:26:15.635Z,96.07
2023-02-02T03:28:45.775Z,84.60
2023-02-02T03:31:16.207Z,90.30
2023-02-02T03:33:47.072Z,90.05
2023-02-02T03:36:17.327Z,92.38
2023-02-02T03:38:47.533Z,89.07
2023-02-02T03:41:18.100Z,79.00
2023-02-02T03:43:48.233Z,82.72
2023-02-02T03:46:18.793Z,83.38
2023-02-02T03:48:48.853Z,79.82
2023-02-02T03:51:19.300Z,67.25
2023-02-02T03:53:49.588Z,65.50
2023-02-02T03:56:21.061Z,71.20
2023-02-02T03:58:51.165Z,73.05
2023-02-02T04:01:29.121Z,78.35
2023-02-02T04:04:00.419Z,67.30
2023-02-02T04:06:31.308Z,69.32
2023-02-02T04:09:02.405Z,74.05
2023-02-02T04:11:33.016Z,102.10
2023-02-02T04:14:03.229Z,79.78
2023-02-02T04:16:36.366Z,77.35
2023-02-02T04:19:07.552Z,75.68
2023-02-02T04:21:37.745Z,61.88
2023-02-02T04:24:08.706Z,56.53
2023-02-02T04:26:38.837Z,57.60
2023-02-02T04:29:09.665Z,59.25
2023-02-02T04:31:40.193Z,62.10
2023-02-02T04:34:10.935Z,73.18
2023-02-02T04:36:41.305Z,63.60
2023-02-02T04:39:13.945Z,60.85
2023-02-02T04:41:44.101Z,63.15
2023-02-02T04:44:18.168Z,58.58
2023-02-02T04:46:48.601Z,56.13
2023-02-02T04:49:19.148Z,58.83
2023-02-02T04:51:49.745Z,57.90
2023-02-02T04:54:19.897Z,55.08
2023-02-02T04:56:50.347Z,51.00
2023-02-02T04:59:20.761Z,55.92
2023-02-02T05:01:52.403Z,52.35
2023-02-02T05:04:22.506Z,46.63
2023-02-02T05:06:53.317Z,49.50
2023-02-02T05:09:23.769Z,43.42
2023-02-02T05:11:54.145Z,54.00
2023-02-02T05:14:24.261Z,56.55
2023-02-02T05:16:55.217Z,57.47
2023-02-02T05:19:25.417Z,49.28
2023-02-02T05:21:56.251Z,49.80
2023-02-02T05:24:26.730Z,46.83
2023-02-02T05:26:59.957Z,45.97
2023-02-02T05:29:30.945Z,44.17
2023-02-02T05:32:01.388Z,45.55
2023-02-02T05:34:32.477Z,45.55
2023-02-02T05:37:02.807Z,48.75
2023-02-02T05:39:33.702Z,50.92
2023-02-02T05:42:03.868Z,49.47
2023-02-02T05:44:34.629Z,50.63
2023-02-02T05:47:04.703Z,48.50
2023-02-02T05:49:35.246Z,46.15
2023-02-02T05:52:05.515Z,49.38
2023-02-02T05:54:36.008Z,48.40
2023-02-02T05:57:06.385Z,49.28
2023-02-02T05:59:36.838Z,50.08
2023-02-02T06:02:07.446Z,47.90
2023-02-02T06:04:37.932Z,49.03
2023-02-02T06:07:08.287Z,47.28
2023-02-02T06:09:38.748Z,47.22
2023-02-02T06:12:10.248Z,48.30
2023-02-02T06:14:40.297Z,45.88
2023-02-02T06:17:10.358Z,46.15
2023-02-02T06:19:40.458Z,44.85
2023-02-02T06:22:10.873Z,44.03
2023-02-02T06:24:41.371Z,44.17
2023-02-02T06:27:11.586Z,44.75
2023-02-02T06:29:42.223Z,44.80
2023-02-02T06:32:12.552Z,44.78
2023-02-02T06:34:42.655Z,43.38
2023-02-02T06:37:13.196Z,42.58
2023-02-02T06:39:43.275Z,45.30
2023-02-02T06:42:21.251Z,45.05
2023-02-02T06:44:51.606Z,43.55
2023-02-02T06:47:21.659Z,43.63
2023-02-02T06:49:52.283Z,44.65
2023-02-02T06:52:22.761Z,44.25
2023-02-02T06:54:53.385Z,43.72
2023-02-02T06:57:23.638Z,43.08
2023-02-02T06:59:54.023Z,40.92
2023-02-02T07:02:24.909Z,40.55
2023-02-02T07:04:55.306Z,37.45
2023-02-02T07:07:25.679Z,37.33
2023-02-02T07:09:58.138Z,39.03
2023-02-02T07:12:29.544Z,39.65
2023-02-02T07:15:01.338Z,39.63
2023-02-02T07:17:31.731Z,37.33
2023-02-02T07:20:02.089Z,36.22
2023-02-02T07:22:32.169Z,36.80
2023-02-02T07:25:02.315Z,37.53
2023-02-02T07:27:32.391Z,38.83
2023-02-02T07:30:02.186Z,38.13
2023-02-02T07:32:32.388Z,36.80
2023-02-02T07:35:02.766Z,39.38
2023-02-02T07:37:32.965Z,40.08
2023-02-02T07:40:03.483Z,38.58
2023-02-02T07:42:33.876Z,39.33
2023-02-02T07:45:26.555Z,39.63
2023-02-02T07:48:02.314Z,38.33
2023-02-02T07:50:33.565Z,39.53
2023-02-02T07:53:03.800Z,38.97
2023-02-02T07:55:34.219Z,37.70
2023-02-02T07:58:05.420Z,38.17
2023-02-02T08:00:35.867Z,38.45
2023-02-02T08:03:06.906Z,38.05
2023-02-02T08:05:38.103Z,36.55
2023-02-02T08:08:08.597Z,37.30
2023-02-02T08:10:38.811Z,37.78
2023-02-02T08:13:10.319Z,36.90
2023-02-02T08:15:40.802Z,38.25
2023-02-02T08:18:11.378Z,37.53
2023-02-02T08:20:41.839Z,34.10
2023-02-02T08:23:17.126Z,33.53
2023-02-02T08:25:47.897Z,34.90
2023-02-02T08:28:18.347Z,34.55
2023-02-02T08:30:48.831Z,35.45
2023-02-02T08:33:19.157Z,34.95
2023-02-02T08:35:49.927Z,37.75
2023-02-02T08:38:20.123Z,34.65
2023-02-02T08:40:50.579Z,35.17
2023-02-02T08:43:20.843Z,35.83
2023-02-02T08:46:13.694Z,34.38
2023-02-02T08:48:44.470Z,33.15
2023-02-02T08:51:18.583Z,34.42
2023-02-02T08:53:49.010Z,33.72
2023-02-02T08:56:20.965Z,33.17
2023-02-02T08:58:55.606Z,32.85
2023-02-02T09:01:27.024Z,32.85
2023-02-02T09:03:58.956Z,32.00
2023-02-02T09:06:31.210Z,32.70
2023-02-02T09:09:02.257Z,32.38
2023-02-02T09:11:32.832Z,32.80
2023-02-02T09:14:04.578Z,32.83
2023-02-02T09:16:36.087Z,31.58
2023-02-02T09:19:07.370Z,31.60
2023-02-02T09:21:38.603Z,30.77
2023-02-02T09:24:10.749Z,31.10
2023-02-02T09:26:41.883Z,32.30
2023-02-02T09:29:15.180Z,30.95
2023-02-02T09:31:46.181Z,31.58
2023-02-02T09:34:17.145Z,30.50
2023-02-02T09:36:49.048Z,30.15
2023-02-02T09:39:21.000Z,31.25
2023-02-02T09:42:10.865Z,31.58
2023-02-02T09:45:01.276Z,30.38
2023-02-02T09:47:39.495Z,32.75
2023-02-02T09:50:29.224Z,32.33
2023-02-02T09:53:19.216Z,38.05
2023-02-02T09:55:54.263Z,38.08
2023-02-02T09:58:27.145Z,37.47
2023-02-02T10:01:04.768Z,36.88
2023-02-02T10:03:55.587Z,36.92
2023-02-02T10:06:46.091Z,37.70
2023-02-02T10:09:36.391Z,46.88
2023-02-02T10:12:09.790Z,43.03
2023-02-02T10:15:00.592Z,39.22
2023-02-02T10:17:47.227Z,39.03
2023-02-02T10:20:24.029Z,31.77
2023-02-02T10:22:57.012Z,29.83
2023-02-02T10:25:30.286Z,30.25
2023-02-02T10:28:06.654Z,32.78
2023-02-02T10:30:56.458Z,31.85
2023-02-02T10:33:33.888Z,30.42
2023-02-02T10:36:23.590Z,32.35
2023-02-02T10:39:02.687Z,30.38
2023-02-02T10:41:52.862Z,29.80
2023-02-02T10:44:43.114Z,29.55
2023-02-02T10:47:15.984Z,31.05
2023-02-02T10:49:46.396Z,37.78
2023-02-02T10:52:18.805Z,31.48
2023-02-02T10:54:57.645Z,30.08
2023-02-02T10:57:48.159Z,29.60
2023-02-02T11:00:22.916Z,29.05
2023-02-02T11:02:54.883Z,31.17
2023-02-02T11:05:46.931Z,30.33
2023-02-02T11:08:18.784Z,29.42
2023-02-02T11:10:50.706Z,29.10
2023-02-02T11:13:40.687Z,29.83
2023-02-02T11:16:41.467Z,29.35
2023-02-02T11:19:27.020Z,30.63
2023-02-02T11:21:58.253Z,30.38
2023-02-02T11:24:48.880Z,31.05
2023-02-02T11:27:28.688Z,32.75
2023-02-02T11:30:00.914Z,34.42
2023-02-02T11:32:33.504Z,33.25
2023-02-02T11:35:23.335Z,34.20
2023-02-02T11:38:02.620Z,34.17
2023-02-02T11:40:40.753Z,35.58
2023-02-02T11:43:30.411Z,35.58
2023-02-02T11:46:05.489Z,34.53
2023-02-02T11:48:40.232Z,35.17
2023-02-02T11:51:11.165Z,34.80
2023-02-02T11:53:49.365Z,37.38
2023-02-02T11:56:25.238Z,35.90
2023-02-02T11:58:58.148Z,37.50
2023-02-02T12:01:36.492Z,37.00
2023-02-02T12:04:27.727Z,36.08
2023-02-02T12:06:58.673Z,36.45
2023-02-02T12:09:31.943Z,36.08
2023-02-02T12:12:22.196Z,37.05
2023-02-02T12:15:11.859Z,37.53
2023-02-02T12:17:45.903Z,36.35
2023-02-02T12:20:21.187Z,35.67
2023-02-02T12:23:11.146Z,35.83
2023-02-02T12:26:01.108Z,35.88
2023-02-02T12:28:41.292Z,36.80
2023-02-02T12:31:31.205Z,35.70
2023-02-02T12:34:21.136Z,38.20
2023-02-02T12:37:05.743Z,42.60
2023-02-02T12:39:42.207Z,43.17
2023-02-02T12:42:26.696Z,47.42
2023-02-02T12:45:16.553Z,42.20
2023-02-02T12:48:06.344Z,44.40
2023-02-02T12:50:56.353Z,44.30
2023-02-02T12:53:39.752Z,43.45
2023-02-02T12:56:29.392Z,46.15
2023-02-02T12:59:08.009Z,44.88
2023-02-02T13:01:49.486Z,43.13
2023-02-02T13:04:43.857Z,46.13
2023-02-02T13:07:34.178Z,49.05
2023-02-02T13:10:24.360Z,47.72
2023-02-02T13:13:04.255Z,50.42
2023-02-02T13:15:37.656Z,48.65
2023-02-02T13:18:15.190Z,54.78
2023-02-02T13:20:51.059Z,64.53
2023-02-02T13:23:30.529Z,60.33
2023-02-02T13:26:14.438Z,65.47
2023-02-02T13:29:00.985Z,64.45
2023-02-02T13:31:50.914Z,69.72
2023-02-02T13:34:25.731Z,67.93
2023-02-02T13:37:17.102Z,70.03
2023-02-02T13:39:50.973Z,70.25
2023-02-02T13:42:43.803Z,68.82
2023-02-02T13:45:34.135Z,68.13
2023-02-02T13:48:14.747Z,70.47
2023-02-02T13:51:05.556Z,66.00
2023-02-02T13:53:55.547Z,67.63
2023-02-02T13:56:42.228Z,65.68
2023-02-02T13:59:31.917Z,65.07
2023-02-02T14:02:03.280Z,86.25
2023-02-02T14:04:34.428Z,68.32
2023-02-02T14:07:07.546Z,62.20
2023-02-02T14:09:40.381Z,62.55
2023-02-02T14:12:13.305Z,66.70
2023-02-02T14:14:49.278Z,64.65
2023-02-02T14:17:39.043Z,69.43
2023-02-02T14:20:29.391Z,69.60
2023-02-02T14:22:59.693Z,68.50
2023-02-02T14:25:53.094Z,67.90
2023-02-02T14:28:42.941Z,61.40
2023-02-02T14:31:25.110Z,62.33
2023-02-02T14:34:14.881Z,66.60
2023-02-02T14:36:55.700Z,65.03
2023-02-02T14:39:31.553Z,64.38
2023-02-02T14:42:28.951Z,66.53
2023-02-02T14:45:18.625Z,63.20
2023-02-02T14:47:51.628Z,65.32
2023-02-02T14:50:37.642Z,66.80
2023-02-02T14:53:10.094Z,58.80
2023-02-02T14:55:52.998Z,58.22
2023-02-02T14:58:32.047Z,54.92
2023-02-02T15:01:28.723Z,54.05
2023-02-02T15:04:18.984Z,52.65
2023-02-02T15:06:49.879Z,55.50
2023-02-02T15:09:38.583Z,54.33
2023-02-02T15:12:17.696Z,55.33
2023-02-02T15:15:07.497Z,55.45
2023-02-02T15:17:58.835Z,55.28
2023-02-02T15:20:45.915Z,101.65
2023-02-02T15:23:29.716Z,72.13
2023-02-02T15:26:19.425Z,65.57
2023-02-02T15:29:09.132Z,59.67
2023-02-02T15:31:51.647Z,60.65
2023-02-02T15:34:23.826Z,58.97
2023-02-02T15:36:56.646Z,62.60
2023-02-02T15:39:37.913Z,72.53
2023-02-02T15:42:30.346Z,64.05
2023-02-02T15:45:00.737Z,62.83
2023-02-02T15:47:36.410Z,64.30
2023-02-02T15:50:20.163Z,94.70
2023-02-02T15:52:51.859Z,60.30
2023-02-02T15:55:40.734Z,58.88
2023-02-02T15:58:31.119Z,62.17
2023-02-02T16:01:03.809Z,58.88
2023-02-02T16:03:41.314Z,60.17
2023-02-02T16:06:12.485Z,59.58
2023-02-02T16:08:43.510Z,59.45
2023-02-02T16:11:16.098Z,60.63
2023-02-02T16:13:49.259Z,62.50
2023-02-02T16:16:30.463Z,70.60
2023-02-02T16:19:05.374Z,75.40
2023-02-02T16:21:35.767Z,78.50
2023-02-02T16:24:08.822Z,73.97
2023-02-02T16:26:39.886Z,73.75
2023-02-02T16:29:14.115Z,168.15
2023-02-02T16:31:44.508Z,91.78
2023-02-02T16:34:18.726Z,88.60
2023-02-02T16:37:07.344Z,99.53
2023-02-02T16:39:37.692Z,89.68
2023-02-02T16:42:11.875Z,84.60
2023-02-02T16:44:45.371Z,79.93
2023-02-02T16:47:35.372Z,80.10
2023-02-02T16:50:25.431Z,81.10
2023-02-02T16:53:03.686Z,66.88
2023-02-02T16:55:50.609Z,59.78
2023-02-02T16:58:23.515Z,56.00
2023-02-02T17:01:15.974Z,57.17
2023-02-02T17:03:53.210Z,57.47
2023-02-02T17:06:46.174Z,59.10
2023-02-02T17:09:42.310Z,55.88
2023-02-02T17:12:34.496Z,56.55
2023-02-02T17:15:25.328Z,56.88
2023-02-02T17:17:55.893Z,57.75
2023-02-02T17:20:26.934Z,55.95
2023-02-02T17:23:11.244Z,60.53
2023-02-02T17:25:43.838Z,56.70
2023-02-02T17:28:16.407Z,57.70
2023-02-02T17:30:47.801Z,60.03
2023-02-02T17:33:19.707Z,141.18
2023-02-02T17:35:55.444Z,147.25
2023-02-02T17:38:29.377Z,67.53
2023-02-02T17:41:01.846Z,60.72
2023-02-02T17:43:32.503Z,57.58
2023-02-02T17:46:03.507Z,59.35
2023-02-02T17:48:34.298Z,59.10
2023-02-02T17:51:08.210Z,58.03
2023-02-02T17:53:38.551Z,59.88
2023-02-02T17:56:09.226Z,59.20
2023-02-02T17:58:39.905Z,61.53
2023-02-02T18:01:10.355Z,62.10
2023-02-02T18:03:42.750Z,60.20
2023-02-02T18:06:13.545Z,61.42
2023-02-02T18:08:44.320Z,64.05
2023-02-02T18:11:15.426Z,62.03
2023-02-02T18:13:45.868Z,62.05
2023-02-02T18:16:16.654Z,64.53
2023-02-02T18:18:47.366Z,67.05
2023-02-02T18:21:17.757Z,61.38
2023-02-02T18:23:50.368Z,64.38
2023-02-02T18:26:23.753Z,65.22
2023-02-02T18:28:54.869Z,63.13
2023-02-02T18:31:25.531Z,67.25
2023-02-02T18:33:55.929Z,64.63
2023-02-02T18:36:26.283Z,64.05
2023-02-02T18:38:56.820Z,62.85
2023-02-02T18:41:27.251Z,65.85
2023-02-02T18:43:57.792Z,62.85
2023-02-02T18:46:28.414Z,61.45
2023-02-02T18:48:58.918Z,64.65
2023-02-02T18:51:29.061Z,63.83
2023-02-02T18:54:01.812Z,62.58
2023-02-02T18:56:32.329Z,64.57
2023-02-02T18:59:02.769Z,65.93
2023-02-02T19:01:33.201Z,65.57
2023-02-02T19:04:03.683Z,63.58
2023-02-02T19:06:54.016Z,61.67
2023-02-02T19:09:26.303Z,61.45
2023-02-02T19:11:56.753Z,64.30
2023-02-02T19:14:29.995Z,63.80
2023-02-02T19:17:19.649Z,64.68
2023-02-02T19:19:51.812Z,64.57
2023-02-02T19:22:23.221Z,66.13
2023-02-02T19:24:53.695Z,65.72
2023-02-02T19:27:25.179Z,66.68
2023-02-02T19:30:00.733Z,63.35
2023-02-02T19:32:34.489Z,64.55
2023-02-02T19:35:06.947Z,62.38
2023-02-02T19:37:42.283Z,63.78
2023-02-02T19:40:18.285Z,63.17
2023-02-02T19:42:49.826Z,62.80
2023-02-02T19:45:28.435Z,62.90
2023-02-02T19:47:59.616Z,64.80
2023-02-02T19:50:33.362Z,62.55
2023-02-02T19:53:08.010Z,65.55
2023-02-02T19:55:38.800Z,66.20
2023-02-02T19:58:29.682Z,62.63
2023-02-02T20:01:00.231Z,65.00
2023-02-02T20:03:32.437Z,65.25
2023-02-02T20:06:05.851Z,64.85
2023-02-02T20:08:41.709Z,65.03
2023-02-02T20:11:26.590Z,65.20
2023-02-02T20:13:56.649Z,64.28
2023-02-02T20:16:27.415Z,68.40
2023-02-02T20:18:59.467Z,67.30
2023-02-02T20:21:37.196Z,66.50
2023-02-02T20:24:17.219Z,65.97
2023-02-02T20:26:48.398Z,64.95
2023-02-02T20:29:27.115Z,68.07
2023-02-02T20:31:58.232Z,68.72
2023-02-02T20:34:30.404Z,71.38
2023-02-02T20:37:20.542Z,69.60
2023-02-02T20:39:55.464Z,66.95
2023-02-02T20:42:26.130Z,68.25
2023-02-02T20:44:56.617Z,66.95
2023-02-02T20:47:27.057Z,64.53
2023-02-02T20:49:58.784Z,69.22
2023-02-02T20:52:32.454Z,66.03
2023-02-02T20:55:02.464Z,65.78
2023-02-02T20:57:34.390Z,63.72
2023-02-02T21:00:04.431Z,59.97
2023-02-02T21:02:34.858Z,59.63
2023-02-02T21:05:06.018Z,62.42
2023-02-02T21:07:36.560Z,63.00
2023-02-02T21:10:07.545Z,63.10
2023-02-02T21:12:38.206Z,63.50
2023-02-02T21:15:08.499Z,61.83
2023-02-02T21:17:38.802Z,62.50
2023-02-02T21:20:09.628Z,64.60
2023-02-02T21:22:40.085Z,61.17
2023-02-02T21:25:11.147Z,63.20
2023-02-02T21:27:46.043Z,62.95
2023-02-02T21:30:16.614Z,59.88
2023-02-02T21:32:47.142Z,62.47
2023-02-02T21:35:17.342Z,63.08
2023-02-02T21:37:51.973Z,64.82
2023-02-02T21:40:25.808Z,58.45
2023-02-02T21:42:56.382Z,56.22
2023-02-02T21:45:29.921Z,54.22
2023-02-02T21:48:00.965Z,53.03
2023-02-02T21:50:42.969Z,50.15
2023-02-02T21:53:32.617Z,50.58
2023-02-02T21:56:02.994Z,49.28
2023-02-02T21:58:37.698Z,46.33
2023-02-02T22:01:27.758Z,43.58
2023-02-02T22:03:57.933Z,43.00
2023-02-02T22:06:43.694Z,38.50
2023-02-02T22:09:22.758Z,36.47
2023-02-02T22:11:55.156Z,37.17
2023-02-02T22:14:45.508Z,36.28
2023-02-02T22:17:29.317Z,37.35
2023-02-02T22:20:03.899Z,36.00
2023-02-02T22:22:37.172Z,34.22
2023-02-02T22:25:26.901Z,34.70
2023-02-02T22:27:59.756Z,31.92
2023-02-02T22:30:35.351Z,32.38
2023-02-02T22:33:07.097Z,31.58
2023-02-02T22:35:37.703Z,31.88
2023-02-02T22:38:08.507Z,32.00
2023-02-02T22:40:39.467Z,30.70
2023-02-02T22:43:09.995Z,31.52
2023-02-02T22:45:40.733Z,31.55
2023-02-02T22:48:12.118Z,29.70
2023-02-02T22:50:43.464Z,28.90
2023-02-02T22:53:15.596Z,28.50
2023-02-02T22:55:45.779Z,29.73
2023-02-02T22:58:16.330Z,28.15
2023-02-02T23:00:46.437Z,29.17
2023-02-02T23:03:16.771Z,28.08
2023-02-02T23:05:47.197Z,27.73
2023-02-02T23:08:17.968Z,27.95
2023-02-02T23:10:48.075Z,27.25
2023-02-02T23:13:19.531Z,24.88
2023-02-02T23:15:49.665Z,27.33
2023-02-02T23:18:20.122Z,26.60
2023-02-02T23:20:51.965Z,27.40
2023-02-02T23:23:23.836Z,27.23
2023-02-02T23:25:54.181Z,27.60
2023-02-02T23:28:24.983Z,25.77
2023-02-02T23:30:56.186Z,26.23
2023-02-02T23:33:26.801Z,24.60
2023-02-02T23:35:57.270Z,23.92
2023-02-02T23:38:28.150Z,21.33
2023-02-02T23:40:58.643Z,33.67
2023-02-02T23:43:29.181Z,34.83
2023-02-02T23:46:00.250Z,30.90
2023-02-02T23:48:31.070Z,36.03
2023-02-02T23:51:02.046Z,35.28
2023-02-02T23:53:32.300Z,33.33
2023-02-02T23:56:02.316Z,25.85
2023-02-02T23:58:32.504Z,23.25
